sensor_id;sensor_type;location;lat;lon;timestamp;P1;durP1;ratioP1;P2;durP2;ratioP2
34200;SDS011;20469;55.638;37.670;2023-08-12T00:00:03;13.48;;;9.18;;
34200;SDS011;20469;55.638;37.670;2023-08-12T00:02:38;13.23;;;9.43;;
34200;SDS011;20469;55.638;37.670;2023-08-12T00:05:07;10.57;;;9.48;;
34200;SDS011;20469;55.638;37.670;2023-08-12T00:07:35;14.30;;;9.13;;
34200;SDS011;20469;55.638;37.670;2023-08-12T00:10:02;14.65;;;9.35;;
34200;SDS011;20469;55.638;37.670;2023-08-12T00:12:31;12.75;;;9.50;;
34200;SDS011;20469;55.638;37.670;2023-08-12T00:14:59;15.43;;;10.27;;
34200;SDS011;20469;55.638;37.670;2023-08-12T00:17:30;11.43;;;9.43;;
34200;SDS011;20469;55.638;37.670;2023-08-12T00:19:58;11.80;;;9.90;;
34200;SDS011;20469;55.638;37.670;2023-08-12T00:22:26;12.32;;;9.73;;
34200;SDS011;20469;55.638;37.670;2023-08-12T00:24:53;15.32;;;9.75;;
34200;SDS011;20469;55.638;37.670;2023-08-12T00:27:20;11.43;;;10.13;;
34200;SDS011;20469;55.638;37.670;2023-08-12T00:29:48;13.32;;;10.98;;
34200;SDS011;20469;55.638;37.670;2023-08-12T00:32:15;13.50;;;10.75;;
34200;SDS011;20469;55.638;37.670;2023-08-12T00:34:42;13.25;;;11.00;;
34200;SDS011;20469;55.638;37.670;2023-08-12T00:37:10;11.45;;;10.25;;
34200;SDS011;20469;55.638;37.670;2023-08-12T00:39:38;16.45;;;11.18;;
34200;SDS011;20469;55.638;37.670;2023-08-12T00:42:05;14.90;;;11.20;;
34200;SDS011;20469;55.638;37.670;2023-08-12T00:44:32;15.00;;;10.65;;
34200;SDS011;20469;55.638;37.670;2023-08-12T00:47:00;15.23;;;11.05;;
34200;SDS011;20469;55.638;37.670;2023-08-12T00:49:28;16.52;;;10.70;;
34200;SDS011;20469;55.638;37.670;2023-08-12T00:51:57;15.98;;;11.88;;
34200;SDS011;20469;55.638;37.670;2023-08-12T00:54:26;17.15;;;12.25;;
34200;SDS011;20469;55.638;37.670;2023-08-12T00:56:54;15.93;;;11.98;;
34200;SDS011;20469;55.638;37.670;2023-08-12T00:59:22;17.08;;;12.10;;
34200;SDS011;20469;55.638;37.670;2023-08-12T01:01:50;15.48;;;12.88;;
34200;SDS011;20469;55.638;37.670;2023-08-12T01:04:17;18.60;;;13.73;;
34200;SDS011;20469;55.638;37.670;2023-08-12T01:06:45;16.00;;;13.90;;
34200;SDS011;20469;55.638;37.670;2023-08-12T01:09:12;16.50;;;12.18;;
34200;SDS011;20469;55.638;37.670;2023-08-12T01:11:50;14.30;;;11.80;;
34200;SDS011;20469;55.638;37.670;2023-08-12T01:14:35;16.05;;;10.88;;
34200;SDS011;20469;55.638;37.670;2023-08-12T01:17:06;15.93;;;11.02;;
34200;SDS011;20469;55.638;37.670;2023-08-12T01:19:36;15.48;;;11.15;;
34200;SDS011;20469;55.638;37.670;2023-08-12T01:22:09;14.70;;;10.57;;
34200;SDS011;20469;55.638;37.670;2023-08-12T01:24:37;14.85;;;11.65;;
34200;SDS011;20469;55.638;37.670;2023-08-12T01:27:07;16.38;;;11.85;;
34200;SDS011;20469;55.638;37.670;2023-08-12T01:29:38;13.35;;;11.77;;
34200;SDS011;20469;55.638;37.670;2023-08-12T01:35:09;14.80;;;12.00;;
34200;SDS011;20469;55.638;37.670;2023-08-12T01:37:44;13.93;;;10.80;;
34200;SDS011;20469;55.638;37.670;2023-08-12T01:40:12;12.75;;;10.70;;
34200;SDS011;20469;55.638;37.670;2023-08-12T01:42:41;14.52;;;10.77;;
34200;SDS011;20469;55.638;37.670;2023-08-12T01:45:09;14.85;;;11.48;;
34200;SDS011;20469;55.638;37.670;2023-08-12T01:47:37;14.98;;;13.38;;
34200;SDS011;20469;55.638;37.670;2023-08-12T01:50:05;16.95;;;11.13;;
34200;SDS011;20469;55.638;37.670;2023-08-12T01:52:33;16.23;;;11.73;;
34200;SDS011;20469;55.638;37.670;2023-08-12T01:55:00;14.82;;;10.18;;
34200;SDS011;20469;55.638;37.670;2023-08-12T01:57:29;16.02;;;10.63;;
34200;SDS011;20469;55.638;37.670;2023-08-12T01:59:57;13.90;;;10.88;;
34200;SDS011;20469;55.638;37.670;2023-08-12T02:02:24;16.75;;;10.32;;
34200;SDS011;20469;55.638;37.670;2023-08-12T02:04:51;13.50;;;10.25;;
34200;SDS011;20469;55.638;37.670;2023-08-12T02:07:19;13.75;;;9.93;;
34200;SDS011;20469;55.638;37.670;2023-08-12T02:09:46;13.13;;;9.32;;
34200;SDS011;20469;55.638;37.670;2023-08-12T02:12:13;16.33;;;10.10;;
34200;SDS011;20469;55.638;37.670;2023-08-12T02:14:41;18.00;;;10.82;;
34200;SDS011;20469;55.638;37.670;2023-08-12T02:17:08;21.25;;;10.98;;
34200;SDS011;20469;55.638;37.670;2023-08-12T02:22:08;18.42;;;11.95;;
34200;SDS011;20469;55.638;37.670;2023-08-12T02:24:36;11.55;;;9.90;;
34200;SDS011;20469;55.638;37.670;2023-08-12T02:27:04;18.48;;;10.05;;
34200;SDS011;20469;55.638;37.670;2023-08-12T02:29:31;15.68;;;10.00;;
34200;SDS011;20469;55.638;37.670;2023-08-12T02:31:59;19.17;;;10.57;;
34200;SDS011;20469;55.638;37.670;2023-08-12T02:34:27;15.80;;;10.60;;
34200;SDS011;20469;55.638;37.670;2023-08-12T02:36:54;13.40;;;9.88;;
34200;SDS011;20469;55.638;37.670;2023-08-12T02:39:21;12.43;;;9.57;;
34200;SDS011;20469;55.638;37.670;2023-08-12T02:41:49;13.48;;;9.43;;
34200;SDS011;20469;55.638;37.670;2023-08-12T02:44:16;11.95;;;9.43;;
34200;SDS011;20469;55.638;37.670;2023-08-12T02:46:44;12.90;;;9.38;;
34200;SDS011;20469;55.638;37.670;2023-08-12T02:49:11;16.55;;;10.18;;
34200;SDS011;20469;55.638;37.670;2023-08-12T02:51:38;12.57;;;9.80;;
34200;SDS011;20469;55.638;37.670;2023-08-12T02:54:06;10.70;;;8.65;;
34200;SDS011;20469;55.638;37.670;2023-08-12T02:56:33;13.65;;;9.50;;
34200;SDS011;20469;55.638;37.670;2023-08-12T02:59:01;17.05;;;9.60;;
34200;SDS011;20469;55.638;37.670;2023-08-12T03:01:28;12.75;;;9.15;;
34200;SDS011;20469;55.638;37.670;2023-08-12T03:03:56;13.60;;;9.40;;
34200;SDS011;20469;55.638;37.670;2023-08-12T03:06:24;13.80;;;9.88;;
34200;SDS011;20469;55.638;37.670;2023-08-12T03:08:51;13.50;;;9.27;;
34200;SDS011;20469;55.638;37.670;2023-08-12T03:11:18;18.75;;;10.77;;
34200;SDS011;20469;55.638;37.670;2023-08-12T03:13:46;13.70;;;9.20;;
34200;SDS011;20469;55.638;37.670;2023-08-12T03:16:13;17.20;;;9.45;;
34200;SDS011;20469;55.638;37.670;2023-08-12T03:18:42;13.55;;;8.73;;
34200;SDS011;20469;55.638;37.670;2023-08-12T03:21:09;13.00;;;9.23;;
34200;SDS011;20469;55.638;37.670;2023-08-12T03:23:37;12.93;;;11.52;;
34200;SDS011;20469;55.638;37.670;2023-08-12T03:26:04;12.20;;;9.25;;
34200;SDS011;20469;55.638;37.670;2023-08-12T03:28:32;12.18;;;9.82;;
34200;SDS011;20469;55.638;37.670;2023-08-12T03:30:59;13.57;;;9.60;;
34200;SDS011;20469;55.638;37.670;2023-08-12T03:33:26;13.90;;;9.73;;
34200;SDS011;20469;55.638;37.670;2023-08-12T03:35:54;15.45;;;10.00;;
34200;SDS011;20469;55.638;37.670;2023-08-12T03:38:21;11.77;;;9.90;;
34200;SDS011;20469;55.638;37.670;2023-08-12T03:40:49;14.98;;;10.23;;
34200;SDS011;20469;55.638;37.670;2023-08-12T03:43:17;14.02;;;10.43;;
34200;SDS011;20469;55.638;37.670;2023-08-12T03:45:44;13.45;;;10.07;;
34200;SDS011;20469;55.638;37.670;2023-08-12T03:48:12;16.40;;;11.05;;
34200;SDS011;20469;55.638;37.670;2023-08-12T03:50:40;17.60;;;11.48;;
34200;SDS011;20469;55.638;37.670;2023-08-12T03:53:08;18.23;;;11.75;;
34200;SDS011;20469;55.638;37.670;2023-08-12T03:55:36;17.67;;;11.00;;
34200;SDS011;20469;55.638;37.670;2023-08-12T03:58:03;15.98;;;10.50;;
34200;SDS011;20469;55.638;37.670;2023-08-12T04:00:31;20.00;;;9.57;;
34200;SDS011;20469;55.638;37.670;2023-08-12T04:02:58;11.48;;;9.18;;
34200;SDS011;20469;55.638;37.670;2023-08-12T04:05:26;12.73;;;9.50;;
34200;SDS011;20469;55.638;37.670;2023-08-12T04:07:53;12.77;;;8.98;;
34200;SDS011;20469;55.638;37.670;2023-08-12T04:10:21;10.75;;;8.90;;
34200;SDS011;20469;55.638;37.670;2023-08-12T04:12:48;13.48;;;9.43;;
34200;SDS011;20469;55.638;37.670;2023-08-12T04:15:15;12.98;;;8.90;;
34200;SDS011;20469;55.638;37.670;2023-08-12T04:17:43;11.40;;;8.43;;
34200;SDS011;20469;55.638;37.670;2023-08-12T04:20:10;12.85;;;8.95;;
34200;SDS011;20469;55.638;37.670;2023-08-12T04:22:38;11.73;;;9.35;;
34200;SDS011;20469;55.638;37.670;2023-08-12T04:25:05;11.88;;;9.10;;
34200;SDS011;20469;55.638;37.670;2023-08-12T04:27:33;10.60;;;9.38;;
34200;SDS011;20469;55.638;37.670;2023-08-12T04:30:00;13.10;;;10.10;;
34200;SDS011;20469;55.638;37.670;2023-08-12T04:32:32;12.48;;;9.25;;
34200;SDS011;20469;55.638;37.670;2023-08-12T04:35:00;10.75;;;9.35;;
34200;SDS011;20469;55.638;37.670;2023-08-12T04:37:30;15.52;;;9.35;;
34200;SDS011;20469;55.638;37.670;2023-08-12T04:39:58;16.25;;;9.27;;
34200;SDS011;20469;55.638;37.670;2023-08-12T04:42:26;10.45;;;8.05;;
34200;SDS011;20469;55.638;37.670;2023-08-12T04:44:53;11.55;;;9.00;;
34200;SDS011;20469;55.638;37.670;2023-08-12T04:47:20;12.10;;;8.48;;
34200;SDS011;20469;55.638;37.670;2023-08-12T04:49:48;10.15;;;9.05;;
34200;SDS011;20469;55.638;37.670;2023-08-12T04:52:15;15.23;;;8.70;;
34200;SDS011;20469;55.638;37.670;2023-08-12T04:54:42;15.82;;;8.60;;
34200;SDS011;20469;55.638;37.670;2023-08-12T04:57:10;10.95;;;8.35;;
34200;SDS011;20469;55.638;37.670;2023-08-12T04:59:37;14.40;;;8.93;;
34200;SDS011;20469;55.638;37.670;2023-08-12T05:02:04;10.65;;;8.68;;
34200;SDS011;20469;55.638;37.670;2023-08-12T05:04:32;10.20;;;8.52;;
34200;SDS011;20469;55.638;37.670;2023-08-12T05:06:59;12.98;;;8.30;;
34200;SDS011;20469;55.638;37.670;2023-08-12T05:09:27;13.10;;;8.68;;
34200;SDS011;20469;55.638;37.670;2023-08-12T05:11:54;11.48;;;8.38;;
34200;SDS011;20469;55.638;37.670;2023-08-12T05:14:21;15.00;;;8.57;;
34200;SDS011;20469;55.638;37.670;2023-08-12T05:16:49;11.07;;;9.13;;
34200;SDS011;20469;55.638;37.670;2023-08-12T05:19:16;12.45;;;8.75;;
34200;SDS011;20469;55.638;37.670;2023-08-12T05:21:43;13.63;;;8.45;;
34200;SDS011;20469;55.638;37.670;2023-08-12T05:24:10;11.98;;;8.50;;
34200;SDS011;20469;55.638;37.670;2023-08-12T05:26:38;10.02;;;7.95;;
34200;SDS011;20469;55.638;37.670;2023-08-12T05:29:05;11.20;;;8.23;;
34200;SDS011;20469;55.638;37.670;2023-08-12T05:31:32;11.38;;;8.52;;
34200;SDS011;20469;55.638;37.670;2023-08-12T05:33:59;12.35;;;8.73;;
34200;SDS011;20469;55.638;37.670;2023-08-12T05:36:27;11.77;;;8.07;;
34200;SDS011;20469;55.638;37.670;2023-08-12T05:38:54;13.40;;;7.90;;
34200;SDS011;20469;55.638;37.670;2023-08-12T05:41:21;15.27;;;8.07;;
34200;SDS011;20469;55.638;37.670;2023-08-12T05:43:49;15.70;;;8.93;;
34200;SDS011;20469;55.638;37.670;2023-08-12T05:46:16;14.40;;;9.25;;
34200;SDS011;20469;55.638;37.670;2023-08-12T05:48:44;18.88;;;8.48;;
34200;SDS011;20469;55.638;37.670;2023-08-12T05:51:11;11.77;;;8.30;;
34200;SDS011;20469;55.638;37.670;2023-08-12T05:53:38;17.77;;;8.80;;
34200;SDS011;20469;55.638;37.670;2023-08-12T05:56:06;12.45;;;8.18;;
34200;SDS011;20469;55.638;37.670;2023-08-12T05:58:33;18.52;;;9.70;;
34200;SDS011;20469;55.638;37.670;2023-08-12T06:01:00;18.23;;;8.35;;
34200;SDS011;20469;55.638;37.670;2023-08-12T06:03:28;13.52;;;8.45;;
34200;SDS011;20469;55.638;37.670;2023-08-12T06:05:55;14.50;;;9.15;;
34200;SDS011;20469;55.638;37.670;2023-08-12T06:08:22;15.27;;;8.77;;
34200;SDS011;20469;55.638;37.670;2023-08-12T06:10:50;15.27;;;8.60;;
34200;SDS011;20469;55.638;37.670;2023-08-12T06:13:17;14.32;;;8.38;;
34200;SDS011;20469;55.638;37.670;2023-08-12T06:15:44;13.13;;;8.65;;
34200;SDS011;20469;55.638;37.670;2023-08-12T06:18:12;17.90;;;8.38;;
34200;SDS011;20469;55.638;37.670;2023-08-12T06:20:40;13.95;;;8.95;;
34200;SDS011;20469;55.638;37.670;2023-08-12T06:23:07;13.75;;;8.77;;
34200;SDS011;20469;55.638;37.670;2023-08-12T06:25:34;15.75;;;8.55;;
34200;SDS011;20469;55.638;37.670;2023-08-12T06:28:03;27.65;;;9.50;;
34200;SDS011;20469;55.638;37.670;2023-08-12T06:30:31;18.48;;;9.10;;
34200;SDS011;20469;55.638;37.670;2023-08-12T06:32:58;19.40;;;9.98;;
34200;SDS011;20469;55.638;37.670;2023-08-12T06:35:26;15.25;;;8.75;;
34200;SDS011;20469;55.638;37.670;2023-08-12T06:37:53;16.75;;;9.68;;
34200;SDS011;20469;55.638;37.670;2023-08-12T06:40:21;12.65;;;7.43;;
34200;SDS011;20469;55.638;37.670;2023-08-12T06:42:48;15.18;;;8.25;;
34200;SDS011;20469;55.638;37.670;2023-08-12T06:45:15;17.95;;;7.55;;
34200;SDS011;20469;55.638;37.670;2023-08-12T06:47:42;11.30;;;7.55;;
34200;SDS011;20469;55.638;37.670;2023-08-12T06:50:10;13.60;;;8.43;;
34200;SDS011;20469;55.638;37.670;2023-08-12T06:52:37;13.05;;;8.68;;
34200;SDS011;20469;55.638;37.670;2023-08-12T06:55:04;12.10;;;8.02;;
34200;SDS011;20469;55.638;37.670;2023-08-12T06:57:32;14.15;;;9.98;;
34200;SDS011;20469;55.638;37.670;2023-08-12T07:00:00;13.57;;;8.38;;
34200;SDS011;20469;55.638;37.670;2023-08-12T07:02:31;16.88;;;8.73;;
34200;SDS011;20469;55.638;37.670;2023-08-12T07:04:58;17.80;;;8.52;;
34200;SDS011;20469;55.638;37.670;2023-08-12T07:07:25;13.68;;;8.57;;
34200;SDS011;20469;55.638;37.670;2023-08-12T07:09:53;15.10;;;8.05;;
34200;SDS011;20469;55.638;37.670;2023-08-12T07:12:20;19.50;;;9.07;;
34200;SDS011;20469;55.638;37.670;2023-08-12T07:14:48;20.80;;;9.45;;
34200;SDS011;20469;55.638;37.670;2023-08-12T07:17:15;13.90;;;8.40;;
34200;SDS011;20469;55.638;37.670;2023-08-12T07:19:42;18.58;;;8.50;;
34200;SDS011;20469;55.638;37.670;2023-08-12T07:22:09;15.80;;;8.65;;
34200;SDS011;20469;55.638;37.670;2023-08-12T07:24:37;12.35;;;7.82;;
34200;SDS011;20469;55.638;37.670;2023-08-12T07:27:05;11.85;;;7.60;;
34200;SDS011;20469;55.638;37.670;2023-08-12T07:29:33;15.02;;;7.97;;
34200;SDS011;20469;55.638;37.670;2023-08-12T07:32:00;13.90;;;7.85;;
34200;SDS011;20469;55.638;37.670;2023-08-12T07:34:28;12.63;;;7.60;;
34200;SDS011;20469;55.638;37.670;2023-08-12T07:36:57;16.48;;;8.73;;
34200;SDS011;20469;55.638;37.670;2023-08-12T07:39:24;20.08;;;8.23;;
34200;SDS011;20469;55.638;37.670;2023-08-12T07:41:51;16.50;;;8.43;;
34200;SDS011;20469;55.638;37.670;2023-08-12T07:44:19;19.73;;;7.88;;
34200;SDS011;20469;55.638;37.670;2023-08-12T07:46:46;12.35;;;7.60;;
34200;SDS011;20469;55.638;37.670;2023-08-12T07:49:14;14.25;;;7.90;;
34200;SDS011;20469;55.638;37.670;2023-08-12T07:51:42;12.77;;;7.70;;
34200;SDS011;20469;55.638;37.670;2023-08-12T07:54:10;13.27;;;7.65;;
34200;SDS011;20469;55.638;37.670;2023-08-12T07:56:37;11.35;;;8.13;;
34200;SDS011;20469;55.638;37.670;2023-08-12T07:59:04;13.90;;;7.93;;
34200;SDS011;20469;55.638;37.670;2023-08-12T08:01:32;10.70;;;7.43;;
34200;SDS011;20469;55.638;37.670;2023-08-12T08:04:02;13.45;;;8.30;;
34200;SDS011;20469;55.638;37.670;2023-08-12T08:06:30;9.23;;;7.50;;
34200;SDS011;20469;55.638;37.670;2023-08-12T08:08:57;12.68;;;7.70;;
34200;SDS011;20469;55.638;37.670;2023-08-12T08:11:25;11.93;;;7.72;;
34200;SDS011;20469;55.638;37.670;2023-08-12T08:13:52;13.50;;;8.57;;
34200;SDS011;20469;55.638;37.670;2023-08-12T08:16:20;12.05;;;8.05;;
34200;SDS011;20469;55.638;37.670;2023-08-12T08:18:47;13.45;;;8.85;;
34200;SDS011;20469;55.638;37.670;2023-08-12T08:21:14;14.48;;;8.32;;
34200;SDS011;20469;55.638;37.670;2023-08-12T08:23:43;11.65;;;8.73;;
34200;SDS011;20469;55.638;37.670;2023-08-12T08:26:11;13.63;;;8.07;;
34200;SDS011;20469;55.638;37.670;2023-08-12T08:28:39;13.32;;;8.50;;
34200;SDS011;20469;55.638;37.670;2023-08-12T08:31:07;13.35;;;7.80;;
34200;SDS011;20469;55.638;37.670;2023-08-12T08:33:34;15.43;;;8.93;;
34200;SDS011;20469;55.638;37.670;2023-08-12T08:36:01;15.93;;;8.73;;
34200;SDS011;20469;55.638;37.670;2023-08-12T08:38:29;16.35;;;8.50;;
34200;SDS011;20469;55.638;37.670;2023-08-12T08:40:57;11.48;;;8.68;;
34200;SDS011;20469;55.638;37.670;2023-08-12T08:43:24;14.98;;;8.38;;
34200;SDS011;20469;55.638;37.670;2023-08-12T08:45:54;10.27;;;8.07;;
34200;SDS011;20469;55.638;37.670;2023-08-12T08:48:23;12.85;;;8.35;;
34200;SDS011;20469;55.638;37.670;2023-08-12T08:50:51;13.55;;;8.50;;
34200;SDS011;20469;55.638;37.670;2023-08-12T08:53:20;13.77;;;8.85;;
34200;SDS011;20469;55.638;37.670;2023-08-12T08:55:47;13.23;;;9.40;;
34200;SDS011;20469;55.638;37.670;2023-08-12T08:58:15;13.80;;;8.85;;
34200;SDS011;20469;55.638;37.670;2023-08-12T09:03:16;15.98;;;9.65;;
34200;SDS011;20469;55.638;37.670;2023-08-12T09:05:43;18.50;;;9.68;;
34200;SDS011;20469;55.638;37.670;2023-08-12T09:08:11;13.38;;;9.13;;
34200;SDS011;20469;55.638;37.670;2023-08-12T09:10:39;16.48;;;9.57;;
34200;SDS011;20469;55.638;37.670;2023-08-12T09:13:08;13.55;;;8.77;;
34200;SDS011;20469;55.638;37.670;2023-08-12T09:15:36;15.85;;;9.40;;
34200;SDS011;20469;55.638;37.670;2023-08-12T09:18:06;17.85;;;9.98;;
34200;SDS011;20469;55.638;37.670;2023-08-12T09:20:34;16.60;;;9.82;;
34200;SDS011;20469;55.638;37.670;2023-08-12T09:23:02;16.02;;;9.38;;
34200;SDS011;20469;55.638;37.670;2023-08-12T09:25:30;14.25;;;9.07;;
34200;SDS011;20469;55.638;37.670;2023-08-12T09:28:01;17.33;;;9.50;;
34200;SDS011;20469;55.638;37.670;2023-08-12T09:30:29;14.88;;;8.57;;
34200;SDS011;20469;55.638;37.670;2023-08-12T09:33:06;11.32;;;9.18;;
34200;SDS011;20469;55.638;37.670;2023-08-12T09:35:39;14.50;;;9.65;;
34200;SDS011;20469;55.638;37.670;2023-08-12T09:38:10;13.00;;;9.52;;
34200;SDS011;20469;55.638;37.670;2023-08-12T09:40:39;12.10;;;8.73;;
34200;SDS011;20469;55.638;37.670;2023-08-12T09:43:08;10.65;;;8.90;;
34200;SDS011;20469;55.638;37.670;2023-08-12T09:45:36;11.43;;;9.35;;
34200;SDS011;20469;55.638;37.670;2023-08-12T09:48:04;13.10;;;9.38;;
34200;SDS011;20469;55.638;37.670;2023-08-12T09:50:32;14.57;;;9.05;;
34200;SDS011;20469;55.638;37.670;2023-08-12T09:52:59;12.30;;;8.88;;
34200;SDS011;20469;55.638;37.670;2023-08-12T09:55:29;12.63;;;9.40;;
34200;SDS011;20469;55.638;37.670;2023-08-12T09:58:01;11.73;;;8.68;;
34200;SDS011;20469;55.638;37.670;2023-08-12T10:00:30;13.90;;;9.43;;
34200;SDS011;20469;55.638;37.670;2023-08-12T10:02:58;13.10;;;9.05;;
34200;SDS011;20469;55.638;37.670;2023-08-12T10:05:28;14.25;;;10.02;;
34200;SDS011;20469;55.638;37.670;2023-08-12T10:07:58;12.30;;;9.77;;
34200;SDS011;20469;55.638;37.670;2023-08-12T10:10:28;12.95;;;9.75;;
34200;SDS011;20469;55.638;37.670;2023-08-12T10:12:58;13.98;;;10.13;;
34200;SDS011;20469;55.638;37.670;2023-08-12T10:15:26;15.00;;;10.30;;
34200;SDS011;20469;55.638;37.670;2023-08-12T10:17:55;13.15;;;9.80;;
34200;SDS011;20469;55.638;37.670;2023-08-12T10:20:24;13.43;;;9.90;;
34200;SDS011;20469;55.638;37.670;2023-08-12T10:22:52;15.73;;;9.25;;
34200;SDS011;20469;55.638;37.670;2023-08-12T10:25:21;12.77;;;9.40;;
34200;SDS011;20469;55.638;37.670;2023-08-12T10:27:50;12.90;;;9.82;;
34200;SDS011;20469;55.638;37.670;2023-08-12T10:30:17;11.80;;;9.13;;
34200;SDS011;20469;55.638;37.670;2023-08-12T10:32:47;11.88;;;9.77;;
34200;SDS011;20469;55.638;37.670;2023-08-12T10:35:14;11.32;;;8.93;;
34200;SDS011;20469;55.638;37.670;2023-08-12T10:37:42;14.35;;;10.20;;
34200;SDS011;20469;55.638;37.670;2023-08-12T10:40:21;11.30;;;9.50;;
34200;SDS011;20469;55.638;37.670;2023-08-12T10:42:50;12.07;;;9.10;;
34200;SDS011;20469;55.638;37.670;2023-08-12T10:45:17;13.13;;;9.07;;
34200;SDS011;20469;55.638;37.670;2023-08-12T10:47:53;15.75;;;9.82;;
34200;SDS011;20469;55.638;37.670;2023-08-12T10:50:45;12.95;;;9.63;;
34200;SDS011;20469;55.638;37.670;2023-08-12T10:53:22;15.32;;;9.98;;
34200;SDS011;20469;55.638;37.670;2023-08-12T10:55:57;14.23;;;10.00;;
34200;SDS011;20469;55.638;37.670;2023-08-12T10:58:26;14.75;;;11.43;;
34200;SDS011;20469;55.638;37.670;2023-08-12T11:00:56;18.58;;;10.50;;
34200;SDS011;20469;55.638;37.670;2023-08-12T11:03:24;17.92;;;10.57;;
34200;SDS011;20469;55.638;37.670;2023-08-12T11:05:53;15.52;;;11.68;;
34200;SDS011;20469;55.638;37.670;2023-08-12T11:08:24;13.95;;;10.95;;
34200;SDS011;20469;55.638;37.670;2023-08-12T11:10:56;12.35;;;9.55;;
34200;SDS011;20469;55.638;37.670;2023-08-12T11:13:26;14.27;;;10.02;;
34200;SDS011;20469;55.638;37.670;2023-08-12T11:16:05;18.08;;;10.05;;
34200;SDS011;20469;55.638;37.670;2023-08-12T11:18:37;10.55;;;9.38;;
34200;SDS011;20469;55.638;37.670;2023-08-12T11:21:04;11.35;;;9.55;;
34200;SDS011;20469;55.638;37.670;2023-08-12T11:23:32;11.65;;;9.13;;
34200;SDS011;20469;55.638;37.670;2023-08-12T11:26:00;12.63;;;9.15;;
34200;SDS011;20469;55.638;37.670;2023-08-12T11:28:28;10.60;;;9.07;;
34200;SDS011;20469;55.638;37.670;2023-08-12T11:30:55;15.60;;;9.82;;
34200;SDS011;20469;55.638;37.670;2023-08-12T11:33:23;13.15;;;10.10;;
34200;SDS011;20469;55.638;37.670;2023-08-12T11:35:51;11.77;;;10.00;;
34200;SDS011;20469;55.638;37.670;2023-08-12T11:38:18;14.13;;;10.63;;
34200;SDS011;20469;55.638;37.670;2023-08-12T11:40:46;16.42;;;10.82;;
34200;SDS011;20469;55.638;37.670;2023-08-12T11:43:13;14.70;;;11.63;;
34200;SDS011;20469;55.638;37.670;2023-08-12T11:45:42;16.67;;;11.88;;
34200;SDS011;20469;55.638;37.670;2023-08-12T11:48:10;14.57;;;11.15;;
34200;SDS011;20469;55.638;37.670;2023-08-12T11:50:37;13.80;;;11.73;;
34200;SDS011;20469;55.638;37.670;2023-08-12T11:53:05;13.73;;;11.35;;
34200;SDS011;20469;55.638;37.670;2023-08-12T11:55:33;13.00;;;11.65;;
34200;SDS011;20469;55.638;37.670;2023-08-12T11:58:00;18.00;;;12.75;;
34200;SDS011;20469;55.638;37.670;2023-08-12T12:00:28;15.43;;;11.65;;
34200;SDS011;20469;55.638;37.670;2023-08-12T12:02:56;14.55;;;11.27;;
34200;SDS011;20469;55.638;37.670;2023-08-12T12:05:27;16.02;;;11.77;;
34200;SDS011;20469;55.638;37.670;2023-08-12T12:07:58;13.50;;;10.88;;
34200;SDS011;20469;55.638;37.670;2023-08-12T12:10:29;16.08;;;11.48;;
34200;SDS011;20469;55.638;37.670;2023-08-12T12:13:02;14.10;;;11.63;;
34200;SDS011;20469;55.638;37.670;2023-08-12T12:15:31;13.45;;;12.05;;
34200;SDS011;20469;55.638;37.670;2023-08-12T12:18:09;15.80;;;12.00;;
34200;SDS011;20469;55.638;37.670;2023-08-12T12:23:27;16.08;;;10.93;;
34200;SDS011;20469;55.638;37.670;2023-08-12T12:25:59;16.83;;;11.55;;
34200;SDS011;20469;55.638;37.670;2023-08-12T12:28:29;19.65;;;11.02;;
34200;SDS011;20469;55.638;37.670;2023-08-12T12:30:57;10.85;;;9.40;;
34200;SDS011;20469;55.638;37.670;2023-08-12T12:33:24;13.95;;;10.02;;
34200;SDS011;20469;55.638;37.670;2023-08-12T12:35:52;14.23;;;10.15;;
34200;SDS011;20469;55.638;37.670;2023-08-12T12:38:25;12.07;;;9.45;;
34200;SDS011;20469;55.638;37.670;2023-08-12T12:40:53;12.85;;;10.13;;
34200;SDS011;20469;55.638;37.670;2023-08-12T12:43:20;14.38;;;10.82;;
34200;SDS011;20469;55.638;37.670;2023-08-12T12:45:48;13.40;;;10.43;;
34200;SDS011;20469;55.638;37.670;2023-08-12T12:48:16;12.75;;;9.75;;
34200;SDS011;20469;55.638;37.670;2023-08-12T12:50:43;13.55;;;10.65;;
34200;SDS011;20469;55.638;37.670;2023-08-12T12:53:10;15.10;;;9.82;;
34200;SDS011;20469;55.638;37.670;2023-08-12T12:55:38;15.70;;;9.70;;
34200;SDS011;20469;55.638;37.670;2023-08-12T12:58:05;13.70;;;9.60;;
34200;SDS011;20469;55.638;37.670;2023-08-12T13:00:34;10.55;;;8.88;;
34200;SDS011;20469;55.638;37.670;2023-08-12T13:03:02;13.48;;;9.50;;
34200;SDS011;20469;55.638;37.670;2023-08-12T13:05:29;12.90;;;9.10;;
34200;SDS011;20469;55.638;37.670;2023-08-12T13:07:56;14.00;;;9.05;;
34200;SDS011;20469;55.638;37.670;2023-08-12T13:10:24;10.68;;;8.85;;
34200;SDS011;20469;55.638;37.670;2023-08-12T13:12:51;10.32;;;9.23;;
34200;SDS011;20469;55.638;37.670;2023-08-12T13:15:18;10.45;;;8.98;;
34200;SDS011;20469;55.638;37.670;2023-08-12T13:17:46;11.15;;;9.02;;
34200;SDS011;20469;55.638;37.670;2023-08-12T13:20:13;11.30;;;9.20;;
34200;SDS011;20469;55.638;37.670;2023-08-12T13:22:41;10.88;;;9.02;;
34200;SDS011;20469;55.638;37.670;2023-08-12T13:25:08;13.38;;;9.32;;
34200;SDS011;20469;55.638;37.670;2023-08-12T13:27:36;12.95;;;10.20;;
34200;SDS011;20469;55.638;37.670;2023-08-12T13:30:04;11.43;;;9.20;;
34200;SDS011;20469;55.638;37.670;2023-08-12T13:32:32;11.90;;;9.57;;
34200;SDS011;20469;55.638;37.670;2023-08-12T13:34:59;12.13;;;9.85;;
34200;SDS011;20469;55.638;37.670;2023-08-12T13:37:27;14.57;;;10.05;;
34200;SDS011;20469;55.638;37.670;2023-08-12T13:39:54;15.48;;;9.65;;
34200;SDS011;20469;55.638;37.670;2023-08-12T13:42:22;13.18;;;9.48;;
34200;SDS011;20469;55.638;37.670;2023-08-12T13:44:49;13.48;;;10.20;;
34200;SDS011;20469;55.638;37.670;2023-08-12T13:47:16;12.10;;;10.07;;
34200;SDS011;20469;55.638;37.670;2023-08-12T13:49:44;15.85;;;10.95;;
34200;SDS011;20469;55.638;37.670;2023-08-12T13:52:11;13.63;;;10.50;;
34200;SDS011;20469;55.638;37.670;2023-08-12T13:54:38;13.95;;;11.30;;
34200;SDS011;20469;55.638;37.670;2023-08-12T13:57:06;14.98;;;10.52;;
34200;SDS011;20469;55.638;37.670;2023-08-12T13:59:33;12.95;;;10.77;;
34200;SDS011;20469;55.638;37.670;2023-08-12T14:02:00;16.38;;;12.85;;
34200;SDS011;20469;55.638;37.670;2023-08-12T14:04:28;15.35;;;12.02;;
34200;SDS011;20469;55.638;37.670;2023-08-12T14:06:55;18.10;;;14.18;;
34200;SDS011;20469;55.638;37.670;2023-08-12T14:09:22;20.25;;;15.32;;
34200;SDS011;20469;55.638;37.670;2023-08-12T14:11:50;24.95;;;16.02;;
34200;SDS011;20469;55.638;37.670;2023-08-12T14:14:17;18.48;;;13.38;;
34200;SDS011;20469;55.638;37.670;2023-08-12T14:16:44;19.40;;;13.93;;
34200;SDS011;20469;55.638;37.670;2023-08-12T14:19:12;15.85;;;12.07;;
34200;SDS011;20469;55.638;37.670;2023-08-12T14:21:43;14.07;;;11.35;;
34200;SDS011;20469;55.638;37.670;2023-08-12T14:24:10;16.92;;;12.27;;
34200;SDS011;20469;55.638;37.670;2023-08-12T14:26:37;14.45;;;11.32;;
34200;SDS011;20469;55.638;37.670;2023-08-12T14:29:05;13.63;;;10.85;;
34200;SDS011;20469;55.638;37.670;2023-08-12T14:31:33;13.98;;;10.45;;